Página principal
METAR-TAF:

METAR-TAF

Aeroportos :

Larnaca, Chipre

Aeroporto Internacional de Lárnaca

latitude: 34-53N, longitude: 033-38E, altura: 2 m

Observação actual do tempo

O boletim foi feito há 42 minutos, às 14:30 UTC
Vento 8 kt de sudoeste
Temperatura 16°C
Humidade 59%
Pressão 1020 hPa
Visibilidade 10 km ou mais
Poucas nuvensa uma altura de 3000 ft

METAR: LCLK 161430Z 22008KT 9999 FEW030 16/08 Q1020 NOSIG

Hora: 17:12 (15:12 UTC)

Previsão

O boletim foi feito há 3 horas e 42 minutos, às 11:30 UTC
Previsão válida de 16 às 12 UTC a 17 às 12 UTC
Vento 12 kt de su-sudoeste
Visibilidade 10 km ou mais
Poucas nuvensa uma altura de 2500 ft
Tornando-se
de 16 às 16 UTC a 16 às 20 UTC
Vento 9 kt de oes-noroeste
Tornando-se
de 17 às 09 UTC a 17 às 12 UTC
Vento 11 kt de su-sudoeste

TAF: LCLK 161130Z 1612/1712 21012KT 9999 FEW025 BECMG 1616/1620 30009KT BECMG 1709/1712 21011KT

Observações e previsões do tempo de mais de 4000 aeroportos (mensagens METAR e TAF).

As estações disponíveis são os pontos amarelos e vermelhos sobre o mapa.

Mova o rato sobre o mapa para ver o nome da estação.

Depois clique no ponto para visualizar as observações e previsões meteorológicas.

Para alterar o mapa : clique nos botões verdes com uma cruz preta para aumentar o zoom; no botão verde com uma pitada de zoom; ou nas setas verdes para mapas adjacentes.


METAR-TAF: